Time;durP1;ratioP1;P1;durP2;ratioP2;P2;SDS_P1;SDS_P2;PMS_P1;PMS_P2;Temp;Humidity;BMP_temperature;BMP_pressure;BME280_temperature;BME280_humidity;BME280_pressure;Samples;Min_cycle;Max_cycle;Signal;HPM_P1;HPM_P2
2023/08/16 00:02:02;;;;;;;;;1.00;1.00;;;;;-146.67;100.00;57155.34;5124908;27;8796;-81
2023/08/16 00:04:28;;;;;;;;;2.00;2.00;;;;;-146.67;100.00;57155.34;5160790;27;8773;-82
2023/08/16 00:06:53;;;;;;;;;2.00;1.00;;;;;-146.67;100.00;57155.34;5133536;27;9591;-82
2023/08/16 00:09:20;;;;;;;;;1.00;1.00;;;;;-146.67;100.00;57155.34;5124669;28;8824;-82
2023/08/16 00:11:46;;;;;;;;;2.00;2.00;;;;;-146.67;100.00;57155.34;5125125;27;8776;-82
2023/08/16 00:14:11;;;;;;;;;1.00;1.00;;;;;-146.67;100.00;57155.34;5124693;28;9228;-82
2023/08/16 00:16:37;;;;;;;;;1.33;1.33;;;;;-146.67;100.00;57155.34;5131650;27;8788;-82
2023/08/16 00:19:02;;;;;;;;;2.00;2.00;;;;;-146.67;100.00;57155.34;5160544;27;8797;-82
2023/08/16 00:21:28;;;;;;;;;0.00;0.00;;;;;-146.67;100.00;57155.34;5139537;27;8934;-82
2023/08/16 00:23:53;;;;;;;;;5.67;2.00;;;;;-146.67;100.00;57155.34;5124859;28;9496;-82
2023/08/16 00:26:18;;;;;;;;;2.67;1.67;;;;;-146.67;100.00;57155.34;5137364;27;8862;-82
2023/08/16 00:28:45;;;;;;;;;3.00;1.00;;;;;-146.67;100.00;57155.34;5132491;27;8903;-82
2023/08/16 00:31:11;;;;;;;;;2.00;1.00;;;;;-146.67;100.00;57155.34;5124741;27;8937;-82
2023/08/16 00:33:37;;;;;;;;;1.33;1.33;;;;;-146.67;100.00;57155.34;5132824;27;9387;-82
2023/08/16 00:36:03;;;;;;;;;2.67;2.67;;;;;-146.67;100.00;57155.34;5144917;27;11437;-82
2023/08/16 00:38:28;;;;;;;;;2.67;2.67;;;;;-146.67;100.00;57155.34;5135682;27;8822;-82
2023/08/16 00:40:53;;;;;;;;;2.00;1.00;;;;;-146.67;100.00;57155.34;5124471;28;8933;-82
2023/08/16 00:43:19;;;;;;;;;1.67;1.67;;;;;-146.67;100.00;57155.34;5140228;27;8794;-82
2023/08/16 00:45:49;;;;;;;;;1.33;1.33;;;;;-146.67;100.00;57155.34;5124319;28;8814;-82
2023/08/16 00:48:15;;;;;;;;;1.67;1.67;;;;;-146.67;100.00;57155.34;5144350;27;8875;-82
2023/08/16 00:50:41;;;;;;;;;3.67;2.00;;;;;-146.67;100.00;57155.34;5102477;28;9252;-82
2023/08/16 00:53:08;;;;;;;;;2.33;1.67;;;;;-146.67;100.00;57155.34;5112791;28;9252;-82
2023/08/16 00:55:33;;;;;;;;;2.00;2.00;;;;;-146.67;100.00;57155.34;5124068;27;8755;-82
2023/08/16 00:57:59;;;;;;;;;2.00;1.00;;;;;-146.67;100.00;57155.34;5123917;27;9137;-81
2023/08/16 01:00:26;;;;;;;;;1.00;1.00;;;;;-146.67;100.00;57155.34;5124059;27;8866;-82
2023/08/16 01:02:52;;;;;;;;;3.67;1.33;;;;;-146.67;100.00;57155.34;5142753;27;8785;-82
2023/08/16 01:05:18;;;;;;;;;1.00;1.00;;;;;-146.67;100.00;57155.34;5144558;27;9415;-81
2023/08/16 01:07:44;;;;;;;;;2.00;0.67;;;;;-146.67;100.00;57155.34;5132806;27;8800;-81
2023/08/16 01:10:09;;;;;;;;;2.33;1.67;;;;;-146.67;100.00;57155.34;5160688;27;8733;-82
2023/08/16 01:12:55;;;;;;;;;3.00;2.00;;;;;-146.67;100.00;57155.34;5147616;27;9313;-82
2023/08/16 01:15:29;;;;;;;;;2.00;1.00;;;;;-146.67;100.00;57155.34;5157133;27;10099;-82
2023/08/16 01:17:56;;;;;;;;;2.00;1.00;;;;;-146.67;100.00;57155.34;5138921;27;9215;-81
2023/08/16 01:20:22;;;;;;;;;0.67;0.67;;;;;-146.67;100.00;57155.34;5120810;28;9181;-82
2023/08/16 01:23:14;;;;;;;;;1.67;0.67;;;;;-146.67;100.00;57155.34;5129617;27;9195;-82
2023/08/16 01:25:42;;;;;;;;;1.00;1.00;;;;;-146.67;100.00;57155.34;5134875;27;8758;-82
2023/08/16 01:28:10;;;;;;;;;1.67;1.67;;;;;-146.67;100.00;57155.34;5125175;27;9323;-81
2023/08/16 01:30:35;;;;;;;;;3.33;3.33;;;;;-146.67;100.00;57155.34;5120666;28;9288;-82
2023/08/16 01:33:10;;;;;;;;;1.67;0.67;;;;;-146.67;100.00;57155.34;5122941;27;9303;-82
2023/08/16 01:35:37;;;;;;;;;3.00;1.67;;;;;-146.67;100.00;57155.34;5127601;27;8721;-81
2023/08/16 01:38:03;;;;;;;;;2.00;2.00;;;;;-146.67;100.00;57155.34;5141608;27;9167;-82
2023/08/16 01:40:43;;;;;;;;;1.67;1.67;;;;;-146.67;100.00;57155.34;5123204;28;9217;-81
2023/08/16 01:43:13;;;;;;;;;2.00;1.67;;;;;-146.67;100.00;57155.34;5158193;27;9425;-82
2023/08/16 01:45:38;;;;;;;;;1.00;1.00;;;;;-146.67;100.00;57155.34;5143494;27;9480;-82
2023/08/16 01:48:04;;;;;;;;;1.67;0.67;;;;;-146.67;100.00;57155.34;5127920;27;9255;-81
2023/08/16 01:50:30;;;;;;;;;2.00;0.67;;;;;-146.67;100.00;57155.34;5122361;28;9795;-81
2023/08/16 01:52:56;;;;;;;;;1.00;1.00;;;;;-146.67;100.00;57155.34;5140205;27;8938;-81
2023/08/16 01:55:26;;;;;;;;;1.00;1.00;;;;;-146.67;100.00;57155.34;5123535;28;9543;-82
2023/08/16 01:57:53;;;;;;;;;2.67;1.00;;;;;-146.67;100.00;57155.34;5123378;28;8700;-81
2023/08/16 02:00:19;;;;;;;;;1.00;1.00;;;;;-146.67;100.00;57155.34;5122817;27;9124;-82
2023/08/16 02:02:44;;;;;;;;;0.67;0.67;;;;;-146.67;100.00;57155.34;5123233;28;9341;-82
2023/08/16 02:05:10;;;;;;;;;1.00;1.00;;;;;-146.67;100.00;57155.34;5126479;27;8843;-81
2023/08/16 02:07:35;;;;;;;;;1.33;1.33;;;;;-146.67;100.00;57155.34;5126994;28;9568;-82
2023/08/16 02:10:01;;;;;;;;;2.33;1.67;;;;;-146.67;100.00;57155.34;5126720;28;8771;-81
2023/08/16 02:12:26;;;;;;;;;0.00;0.00;;;;;-146.67;100.00;57155.34;5126499;28;8911;-82
2023/08/16 02:14:51;;;;;;;;;2.33;1.00;;;;;-146.67;100.00;57155.34;5124514;28;10402;-82
2023/08/16 02:17:17;;;;;;;;;1.33;1.33;;;;;-146.67;100.00;57155.34;5134410;27;8801;-81
2023/08/16 02:19:42;;;;;;;;;0.67;0.67;;;;;-146.67;100.00;57155.34;5146173;27;8842;-81
2023/08/16 02:22:07;;;;;;;;;0.00;0.00;;;;;-146.67;100.00;57155.34;5146203;27;8918;-81
2023/08/16 02:24:33;;;;;;;;;2.00;0.00;;;;;-146.67;100.00;57155.34;5145720;27;8773;-81
2023/08/16 02:26:59;;;;;;;;;1.67;1.00;;;;;-146.67;100.00;57155.34;5126444;28;8793;-81
2023/08/16 02:29:24;;;;;;;;;0.67;0.33;;;;;-146.67;100.00;57155.34;5140271;27;9390;-81
2023/08/16 02:31:50;;;;;;;;;0.00;0.00;;;;;-146.67;100.00;57155.34;5125164;28;8787;-81
2023/08/16 02:34:15;;;;;;;;;0.00;0.00;;;;;-146.67;100.00;57155.34;5127296;27;8787;-81
2023/08/16 02:36:40;;;;;;;;;0.67;0.67;;;;;-146.67;100.00;57155.34;5137800;27;8799;-81
2023/08/16 02:39:08;;;;;;;;;0.00;0.00;;;;;-146.67;100.00;57155.34;5138773;27;8822;-81
2023/08/16 02:41:33;;;;;;;;;0.67;0.00;;;;;-146.67;100.00;57155.34;5130069;27;8806;-81
2023/08/16 02:43:59;;;;;;;;;1.00;0.00;;;;;-146.67;100.00;57155.34;5160461;27;9873;-81
2023/08/16 02:46:24;;;;;;;;;0.33;0.33;;;;;-146.67;100.00;57155.34;5126245;27;8814;-81
2023/08/16 02:48:50;;;;;;;;;0.67;0.67;;;;;-146.67;100.00;57155.34;5125960;28;8815;-81
2023/08/16 02:51:15;;;;;;;;;1.67;0.33;;;;;-146.67;100.00;57155.34;5125485;27;8839;-81
2023/08/16 02:53:40;;;;;;;;;0.33;0.00;;;;;-146.67;100.00;57155.34;5134066;27;8879;-81
2023/08/16 02:56:06;;;;;;;;;0.67;0.67;;;;;-146.67;100.00;57155.34;5126190;27;8876;-81
2023/08/16 02:58:31;;;;;;;;;0.00;0.00;;;;;-146.67;100.00;57155.34;5132665;27;8804;-80
2023/08/16 03:00:56;;;;;;;;;0.00;0.00;;;;;-146.67;100.00;57155.34;5154655;27;8825;-81
2023/08/16 03:03:22;;;;;;;;;1.33;1.33;;;;;-146.67;100.00;57155.34;5117508;27;8784;-81
2023/08/16 03:05:48;;;;;;;;;0.67;0.67;;;;;-146.67;100.00;57155.34;5138168;27;8894;-81
2023/08/16 03:08:13;;;;;;;;;0.33;0.33;;;;;-146.67;100.00;57155.34;5124432;28;8827;-81
2023/08/16 03:10:38;;;;;;;;;0.00;0.00;;;;;-146.67;100.00;57155.34;5126255;27;8803;-81
2023/08/16 03:13:04;;;;;;;;;0.00;0.00;;;;;-146.67;100.00;57155.34;5124867;27;8824;-80
2023/08/16 03:15:29;;;;;;;;;0.67;0.67;;;;;-146.67;100.00;57155.34;5123842;28;8804;-81
2023/08/16 03:17:54;;;;;;;;;1.00;1.00;;;;;-146.67;100.00;57155.34;5124435;28;8815;-82
2023/08/16 03:20:20;;;;;;;;;1.00;1.00;;;;;-146.67;100.00;57155.34;5122691;28;8817;-81
2023/08/16 03:22:45;;;;;;;;;0.00;0.00;;;;;-146.67;100.00;57155.34;5124530;27;9891;-79
2023/08/16 03:25:11;;;;;;;;;0.00;0.00;;;;;-146.67;100.00;57155.34;5139026;27;8795;-81
2023/08/16 03:27:36;;;;;;;;;0.00;0.00;;;;;-146.67;100.00;57155.34;5144401;27;8902;-81
2023/08/16 03:30:02;;;;;;;;;3.33;0.67;;;;;-146.67;100.00;57155.34;5125303;28;8864;-81
2023/08/16 03:32:27;;;;;;;;;0.00;0.00;;;;;-146.67;100.00;57155.34;5125648;28;8862;-81
2023/08/16 03:34:53;;;;;;;;;0.67;0.67;;;;;-146.67;100.00;57155.34;5125754;27;8795;-81
2023/08/16 03:37:18;;;;;;;;;0.67;0.67;;;;;-146.67;100.00;57155.34;5123589;28;8819;-81
2023/08/16 03:39:43;;;;;;;;;2.00;0.33;;;;;-146.67;100.00;57155.34;5134492;27;8780;-81
2023/08/16 03:42:09;;;;;;;;;0.00;0.00;;;;;-146.67;100.00;57155.34;5161222;27;9893;-81
2023/08/16 03:44:34;;;;;;;;;2.67;1.00;;;;;-146.67;100.00;57155.34;5146956;27;8826;-81
2023/08/16 03:47:00;;;;;;;;;0.00;0.00;;;;;-146.67;100.00;57155.34;5129528;27;9724;-81
2023/08/16 03:49:25;;;;;;;;;2.00;0.00;;;;;-146.67;100.00;57155.34;5145307;27;8905;-81
2023/08/16 03:51:51;;;;;;;;;0.67;0.67;;;;;-146.67;100.00;57155.34;5126145;27;8807;-82
2023/08/16 03:54:16;;;;;;;;;0.67;0.67;;;;;-146.67;100.00;57155.34;5126872;27;8849;-81
2023/08/16 03:56:42;;;;;;;;;0.00;0.00;;;;;-146.67;100.00;57155.34;5124907;28;8825;-81
2023/08/16 03:59:07;;;;;;;;;1.67;0.00;;;;;-146.67;100.00;57155.34;5136937;27;8856;-82
2023/08/16 04:01:32;;;;;;;;;0.00;0.00;;;;;-146.67;100.00;57155.34;5145730;27;8827;-81
2023/08/16 04:03:58;;;;;;;;;0.00;0.00;;;;;-146.67;100.00;57155.34;5145391;27;8806;-81
2023/08/16 04:06:23;;;;;;;;;2.00;1.00;;;;;-146.67;100.00;57155.34;5133158;27;8815;-81
2023/08/16 04:08:49;;;;;;;;;0.67;0.67;;;;;-146.67;100.00;57155.34;5153926;27;8902;-82
2023/08/16 04:11:15;;;;;;;;;1.00;1.00;;;;;-146.67;100.00;57155.34;5124517;28;8826;-81
2023/08/16 04:13:40;;;;;;;;;1.00;0.00;;;;;-146.67;100.00;57155.34;5134876;27;8786;-81
2023/08/16 04:16:05;;;;;;;;;0.33;0.00;;;;;-146.67;100.00;57155.34;5125162;28;9393;-82
2023/08/16 04:18:31;;;;;;;;;2.00;1.00;;;;;-146.67;100.00;57155.34;5131291;27;8787;-82
2023/08/16 04:20:56;;;;;;;;;2.00;1.00;;;;;-146.67;100.00;57155.34;5144108;27;8876;-81
2023/08/16 04:23:22;;;;;;;;;1.33;1.33;;;;;-146.67;100.00;57155.34;5157547;27;8807;-81
2023/08/16 04:25:48;;;;;;;;;2.33;0.67;;;;;-146.67;100.00;57155.34;5123900;27;8806;-81
2023/08/16 04:28:14;;;;;;;;;0.00;0.00;;;;;-146.67;100.00;57155.34;5142597;27;9331;-81
2023/08/16 04:30:39;;;;;;;;;0.33;0.33;;;;;-146.67;100.00;57155.34;5124897;28;8771;-82
2023/08/16 04:33:04;;;;;;;;;1.00;1.00;;;;;-146.67;100.00;57155.34;5144201;27;9579;-82
2023/08/16 04:35:30;;;;;;;;;1.00;1.00;;;;;-146.67;100.00;57155.34;5140228;27;8822;-82
2023/08/16 04:37:55;;;;;;;;;1.00;1.00;;;;;-146.67;100.00;57155.34;5115322;27;8854;-82
2023/08/16 04:40:20;;;;;;;;;0.67;0.00;;;;;-146.67;100.00;57155.34;5123825;28;8825;-82
2023/08/16 04:42:46;;;;;;;;;0.67;0.67;;;;;-146.67;100.00;57155.34;5126741;27;8813;-81
2023/08/16 04:45:11;;;;;;;;;1.00;1.00;;;;;-146.67;100.00;57155.34;5135673;27;8783;-82
2023/08/16 04:47:37;;;;;;;;;1.00;1.00;;;;;-146.67;100.00;57155.34;5124430;28;8779;-82
2023/08/16 04:50:06;;;;;;;;;0.00;0.00;;;;;-146.67;100.00;57155.34;5137655;27;8866;-81
2023/08/16 04:52:32;;;;;;;;;0.67;0.00;;;;;-146.67;100.00;57155.34;5144821;27;8765;-81
2023/08/16 04:54:58;;;;;;;;;1.00;1.00;;;;;-146.67;100.00;57155.34;5135448;27;10305;-82
2023/08/16 04:57:24;;;;;;;;;2.00;1.00;;;;;-146.67;100.00;57155.34;5138400;27;10138;-82
2023/08/16 04:59:50;;;;;;;;;1.00;1.00;;;;;-146.67;100.00;57155.34;5122829;27;9849;-82
2023/08/16 05:02:15;;;;;;;;;0.00;0.00;;;;;-146.67;100.00;57155.34;5124214;27;8803;-82
2023/08/16 05:04:40;;;;;;;;;0.00;0.00;;;;;-146.67;100.00;57155.34;5132962;27;8799;-82
2023/08/16 05:07:06;;;;;;;;;3.75;1.75;;;;;-146.67;100.00;57155.34;5123418;27;8875;-79
2023/08/16 05:09:31;;;;;;;;;2.33;0.00;;;;;-146.67;100.00;57155.34;5121553;27;10432;-79
2023/08/16 05:11:57;;;;;;;;;0.33;0.33;;;;;-146.67;100.00;57155.34;5142941;27;8811;-79
2023/08/16 05:14:23;;;;;;;;;1.67;1.00;;;;;-146.67;100.00;57155.34;5138066;27;8858;-78
2023/08/16 05:16:49;;;;;;;;;1.00;1.00;;;;;-146.67;100.00;57155.34;5138722;27;8790;-76
2023/08/16 05:19:14;;;;;;;;;2.25;1.75;;;;;-146.67;100.00;57155.34;5122382;28;9725;-79
2023/08/16 05:21:39;;;;;;;;;2.50;2.00;;;;;-146.67;100.00;57155.34;5127023;27;8823;-79
2023/08/16 05:24:05;;;;;;;;;0.50;0.50;;;;;-146.67;100.00;57155.34;5125781;27;8829;-78
2023/08/16 05:26:31;;;;;;;;;2.50;1.00;;;;;-146.67;100.00;57155.34;5127912;27;8776;-79
2023/08/16 05:28:58;;;;;;;;;2.00;1.00;;;;;-146.67;100.00;57155.34;5137135;27;10091;-80
2023/08/16 05:31:23;;;;;;;;;1.00;1.00;;;;;-146.67;100.00;57155.34;5131344;27;8777;-88
2023/08/16 05:33:49;;;;;;;;;0.67;0.67;;;;;-146.67;100.00;57155.34;5123015;28;9632;-78
2023/08/16 05:36:14;;;;;;;;;1.75;1.00;;;;;-146.67;100.00;57155.34;5121973;28;8799;-87
2023/08/16 05:38:40;;;;;;;;;1.00;1.00;;;;;-146.67;100.00;57155.34;5125279;27;8906;-89
2023/08/16 05:41:05;;;;;;;;;1.00;1.00;;;;;-146.67;100.00;57155.34;5126671;27;8871;-91
2023/08/16 05:43:31;;;;;;;;;1.67;1.00;;;;;-146.67;100.00;57155.34;5146234;27;8883;-82
2023/08/16 05:45:57;;;;;;;;;2.00;2.00;;;;;-146.67;100.00;57155.34;5163610;27;8786;-92
2023/08/16 05:48:22;;;;;;;;;1.00;1.00;;;;;-146.67;100.00;57155.34;5147945;27;10321;-91
2023/08/16 05:50:48;;;;;;;;;1.75;1.00;;;;;-146.67;100.00;57155.34;5138241;27;8793;-87
2023/08/16 05:53:13;;;;;;;;;1.00;1.00;;;;;-146.67;100.00;57155.34;5141595;27;8824;-90
2023/08/16 05:55:39;;;;;;;;;0.33;0.33;;;;;-146.67;100.00;57155.34;5129329;27;8821;-90
2023/08/16 05:58:04;;;;;;;;;4.50;2.50;;;;;-146.67;100.00;57155.34;5139190;27;9636;-90
2023/08/16 06:00:30;;;;;;;;;3.75;1.50;;;;;-146.67;100.00;57155.34;5156291;27;8816;-93
2023/08/16 06:02:55;;;;;;;;;1.00;1.00;;;;;-146.67;100.00;57155.34;5126243;27;8801;-82
2023/08/16 06:05:21;;;;;;;;;0.50;0.50;;;;;-146.67;100.00;57155.34;5125723;27;8805;-88
2023/08/16 06:07:46;;;;;;;;;2.00;1.00;;;;;-146.67;100.00;57155.34;5138895;27;8827;-92
2023/08/16 06:10:11;;;;;;;;;2.00;2.00;;;;;-146.67;100.00;57155.34;5137537;27;8781;-90
2023/08/16 06:12:37;;;;;;;;;1.67;1.67;;;;;-146.67;100.00;57155.34;5136421;27;8891;-91
2023/08/16 06:15:03;;;;;;;;;2.00;1.67;;;;;-146.67;100.00;57155.34;5152706;27;8812;-91
2023/08/16 06:17:28;;;;;;;;;3.00;2.00;;;;;-146.67;100.00;57155.34;5154211;27;10025;-93
2023/08/16 06:19:54;;;;;;;;;2.00;2.00;;;;;-146.67;100.00;57155.34;5132672;27;9495;-93
2023/08/16 06:22:19;;;;;;;;;2.50;2.50;;;;;-146.67;100.00;57155.34;5136916;27;8823;-88
2023/08/16 06:24:45;;;;;;;;;2.00;2.00;;;;;-146.67;100.00;57155.34;5133352;27;8864;-92
2023/08/16 06:27:11;;;;;;;;;3.25;2.25;;;;;-146.67;100.00;57155.34;5146164;27;10113;-91
2023/08/16 06:29:36;;;;;;;;;3.00;2.00;;;;;-146.67;100.00;57155.34;5163315;27;8892;-91
2023/08/16 06:32:03;;;;;;;;;2.33;1.33;;;;;-146.67;100.00;57155.34;5147796;27;8824;-91
2023/08/16 06:34:29;;;;;;;;;3.00;2.00;;;;;-146.67;100.00;57155.34;5115663;28;8800;-92
2023/08/16 06:36:54;;;;;;;;;1.00;1.00;;;;;-146.67;100.00;57155.34;5125828;27;10270;-92
2023/08/16 06:39:20;;;;;;;;;2.00;2.00;;;;;-146.67;100.00;57155.34;5123408;27;9451;-92
2023/08/16 06:41:46;;;;;;;;;1.00;1.00;;;;;-146.67;100.00;57155.34;5120392;28;8828;-86
2023/08/16 06:44:11;;;;;;;;;3.00;2.00;;;;;-146.67;100.00;57155.34;5125657;27;8802;-93
2023/08/16 06:46:41;;;;;;;;;2.25;1.75;;;;;-146.67;100.00;57155.34;5108857;28;8781;-85
2023/08/16 06:49:07;;;;;;;;;1.75;1.75;;;;;-146.67;100.00;57155.34;5124284;27;8764;-91
2023/08/16 06:51:32;;;;;;;;;3.50;2.00;;;;;-146.67;100.00;57155.34;5122348;28;9545;-92
2023/08/16 06:53:58;;;;;;;;;1.00;1.00;;;;;-146.67;100.00;57155.34;5123763;28;8799;-92
2023/08/16 06:56:23;;;;;;;;;3.00;1.33;;;;;-146.67;100.00;57155.34;5123936;28;9910;-91
2023/08/16 06:58:50;;;;;;;;;0.67;0.67;;;;;-146.67;100.00;57155.34;5123630;28;8823;-91
2023/08/16 07:01:15;;;;;;;;;2.25;1.50;;;;;-146.67;100.00;57155.34;5125442;28;8788;-91
2023/08/16 07:03:41;;;;;;;;;2.00;2.00;;;;;-146.67;100.00;57155.34;5125678;27;9470;-91
2023/08/16 07:06:06;;;;;;;;;2.00;2.00;;;;;-146.67;100.00;57155.34;5123854;27;8810;-90
2023/08/16 07:08:32;;;;;;;;;2.00;2.00;;;;;-146.67;100.00;57155.34;5124153;28;8857;-90
2023/08/16 07:10:57;;;;;;;;;2.00;2.00;;;;;-146.67;100.00;57155.34;5124435;28;8798;-91
2023/08/16 07:13:23;;;;;;;;;2.00;2.00;;;;;-146.67;100.00;57155.34;5124595;28;8810;-90
2023/08/16 07:15:49;;;;;;;;;1.33;1.33;;;;;-146.67;100.00;57155.34;5113159;28;8789;-90
2023/08/16 07:18:14;;;;;;;;;3.33;3.00;;;;;-146.67;100.00;57155.34;5138162;27;8814;-91
2023/08/16 07:20:40;;;;;;;;;3.75;2.25;;;;;-146.67;100.00;57155.34;5136480;27;8817;-91
2023/08/16 07:23:06;;;;;;;;;6.00;3.75;;;;;-146.67;100.00;57155.34;5117363;27;8815;-90
2023/08/16 07:25:32;;;;;;;;;4.00;2.00;;;;;-146.67;100.00;57155.34;5126447;27;8880;-91
2023/08/16 07:27:57;;;;;;;;;2.00;1.67;;;;;-146.67;100.00;57155.34;5125083;28;9640;-90
2023/08/16 07:30:23;;;;;;;;;4.00;4.00;;;;;-146.67;100.00;57155.34;5123892;28;8877;-91
2023/08/16 07:32:48;;;;;;;;;5.50;2.00;;;;;-146.67;100.00;57155.34;5123117;28;8936;-91
2023/08/16 07:35:14;;;;;;;;;3.50;3.00;;;;;-146.67;100.00;57155.34;5130051;27;10009;-87
2023/08/16 07:37:39;;;;;;;;;3.00;3.00;;;;;-146.67;100.00;57155.34;5152663;27;8796;-93
2023/08/16 07:40:05;;;;;;;;;2.00;2.00;;;;;-146.67;100.00;57155.34;5141427;27;8798;-93
2023/08/16 07:42:31;;;;;;;;;4.00;2.00;;;;;-146.67;100.00;57155.34;5109743;27;8742;-93
2023/08/16 07:45:00;;;;;;;;;4.67;4.00;;;;;-146.67;100.00;57155.34;5128111;27;9822;-93
2023/08/16 07:47:27;;;;;;;;;6.25;3.25;;;;;-146.67;100.00;57155.34;5132050;27;9915;-91
2023/08/16 07:49:54;;;;;;;;;4.00;3.00;;;;;-146.67;100.00;57155.34;5134744;27;9538;-93
2023/08/16 07:52:20;;;;;;;;;3.00;2.00;;;;;-146.67;100.00;57155.34;5124141;28;9431;-93
2023/08/16 07:54:45;;;;;;;;;4.67;2.67;;;;;-146.67;100.00;57155.34;5132378;27;10349;-94
2023/08/16 07:57:10;;;;;;;;;2.67;1.67;;;;;-146.67;100.00;57155.34;5145571;27;8780;-92
2023/08/16 07:59:36;;;;;;;;;5.67;3.33;;;;;-146.67;100.00;57155.34;5125449;27;8917;-93
2023/08/16 08:02:01;;;;;;;;;5.00;3.33;;;;;-146.67;100.00;57155.34;5122268;28;8795;-93
2023/08/16 08:04:27;;;;;;;;;3.00;3.00;;;;;-146.67;100.00;57155.34;5124645;28;8896;-94
2023/08/16 08:06:52;;;;;;;;;7.67;6.00;;;;;-146.67;100.00;57155.34;5125156;28;8795;-93
2023/08/16 08:09:17;;;;;;;;;8.00;4.75;;;;;-146.67;100.00;57155.34;5143120;27;8872;-93
2023/08/16 08:11:43;;;;;;;;;2.67;2.67;;;;;-146.67;100.00;57155.34;5161905;27;8773;-93
2023/08/16 08:14:08;;;;;;;;;3.00;3.00;;;;;-146.67;100.00;57155.34;5145838;27;8788;-94
2023/08/16 08:16:34;;;;;;;;;5.00;3.00;;;;;-146.67;100.00;57155.34;5161534;27;8889;-94
2023/08/16 08:18:59;;;;;;;;;5.33;2.00;;;;;-146.67;100.00;57155.34;5162005;27;8811;-94
2023/08/16 08:21:25;;;;;;;;;4.67;4.67;;;;;-146.67;100.00;57155.34;5143921;27;8788;-94
2023/08/16 08:23:50;;;;;;;;;5.67;4.00;;;;;-146.67;100.00;57155.34;5126143;27;10006;-92
2023/08/16 08:26:16;;;;;;;;;5.00;3.00;;;;;-146.67;100.00;57155.34;5122772;28;8799;-94
2023/08/16 08:28:42;;;;;;;;;3.67;3.67;;;;;-146.67;100.00;57155.34;5124133;28;8798;-91
2023/08/16 08:31:07;;;;;;;;;3.33;2.67;;;;;-146.67;100.00;57155.34;5124186;27;8830;-94
2023/08/16 08:33:33;;;;;;;;;4.00;4.00;;;;;-146.67;100.00;57155.34;5123275;28;9906;-94
2023/08/16 08:35:58;;;;;;;;;5.67;4.33;;;;;-146.67;100.00;57155.34;5122286;27;8839;-93
2023/08/16 08:38:24;;;;;;;;;6.00;3.33;;;;;-146.67;100.00;57155.34;5122317;28;8822;-93
2023/08/16 08:40:57;;;;;;;;;3.00;3.00;;;;;-146.67;100.00;57155.34;5123666;28;8863;-93
2023/08/16 08:43:30;;;;;;;;;6.00;5.67;;;;;-146.67;100.00;57155.34;5119405;27;10094;-83
2023/08/16 08:45:58;;;;;;;;;4.00;4.00;;;;;-146.67;100.00;57155.34;5123089;27;9625;-89
2023/08/16 08:48:25;;;;;;;;;6.33;5.00;;;;;-146.67;100.00;57155.34;5124365;28;9446;-94
2023/08/16 08:50:53;;;;;;;;;5.00;4.00;;;;;-146.67;100.00;57155.34;5139161;27;9526;-93
2023/08/16 08:53:19;;;;;;;;;5.00;4.00;;;;;-146.67;100.00;57155.34;5124305;27;9664;-93
2023/08/16 08:55:46;;;;;;;;;9.67;5.00;;;;;-146.67;100.00;57155.34;5140162;27;9392;-94
2023/08/16 08:58:14;;;;;;;;;4.67;4.67;;;;;-146.67;100.00;57155.34;5122436;28;9505;-94
2023/08/16 09:00:41;;;;;;;;;5.67;2.67;;;;;-146.67;100.00;57155.34;5139853;27;9490;-95
2023/08/16 09:03:08;;;;;;;;;6.33;4.00;;;;;-146.67;100.00;57155.34;5140051;27;9489;-94
2023/08/16 09:05:37;;;;;;;;;3.67;3.33;;;;;-146.67;100.00;57155.34;5133086;27;9301;-94
2023/08/16 09:08:04;;;;;;;;;1.75;1.75;;;;;-146.67;100.00;57155.34;5129636;27;9016;-94
2023/08/16 09:10:35;;;;;;;;;8.00;4.00;;;;;-146.67;100.00;57155.34;5123466;28;9442;-93
2023/08/16 09:13:06;;;;;;;;;3.00;3.00;;;;;-146.67;100.00;57155.34;5139989;27;10031;-94
2023/08/16 09:15:44;;;;;;;;;6.33;5.00;;;;;-146.67;100.00;57155.34;5142799;27;9344;-94
2023/08/16 09:18:22;;;;;;;;;4.33;3.67;;;;;-146.67;100.00;57155.34;5158393;27;9467;-94
2023/08/16 09:20:49;;;;;;;;;7.67;5.67;;;;;-146.67;100.00;57155.34;5149525;27;9349;-94
2023/08/16 09:23:19;;;;;;;;;5.33;3.33;;;;;-146.67;100.00;57155.34;5116003;28;9606;-95
2023/08/16 09:25:46;;;;;;;;;8.67;3.67;;;;;-146.67;100.00;57155.34;5138206;27;9359;-91
2023/08/16 09:28:13;;;;;;;;;5.67;4.00;;;;;-146.67;100.00;57155.34;5154355;27;9158;-93
2023/08/16 09:30:42;;;;;;;;;5.00;3.67;;;;;-146.67;100.00;57155.34;5130462;27;9227;-94
2023/08/16 09:33:08;;;;;;;;;8.33;4.67;;;;;-146.67;100.00;57155.34;5122526;28;10251;-95
2023/08/16 09:35:45;;;;;;;;;3.33;3.00;;;;;-146.67;100.00;57155.34;5121801;28;8966;-94
2023/08/16 09:38:15;;;;;;;;;2.67;2.67;;;;;-146.67;100.00;57155.34;5121969;28;9055;-94
2023/08/16 09:40:53;;;;;;;;;5.67;2.67;;;;;-146.67;100.00;57155.34;5122220;28;9101;-94
2023/08/16 09:43:19;;;;;;;;;5.67;4.00;;;;;-146.67;100.00;57155.34;5125703;27;9290;-93
2023/08/16 09:45:51;;;;;;;;;4.67;3.00;;;;;-146.67;100.00;57155.34;5123669;27;9045;-95
2023/08/16 09:48:19;;;;;;;;;3.67;3.67;;;;;-146.67;100.00;57155.34;5138099;27;9024;-94
2023/08/16 09:50:45;;;;;;;;;5.00;3.33;;;;;-146.67;100.00;57155.34;5159318;27;9164;-94
2023/08/16 09:53:12;;;;;;;;;4.00;2.67;;;;;-146.67;100.00;57155.34;5156350;27;9326;-94
2023/08/16 09:55:40;;;;;;;;;3.00;2.00;;;;;-146.67;100.00;57155.34;5123350;27;8893;-93
2023/08/16 09:58:11;;;;;;;;;1.67;1.00;;;;;-146.67;100.00;57155.34;5139250;27;9047;-93
2023/08/16 10:00:37;;;;;;;;;2.00;2.00;;;;;-146.67;100.00;57155.34;5124081;27;8907;-93
2023/08/16 10:03:04;;;;;;;;;7.00;5.00;;;;;-146.67;100.00;57155.34;5122220;27;10122;-92
2023/08/16 10:05:30;;;;;;;;;3.33;2.67;;;;;-146.67;100.00;57155.34;5159499;27;9260;-92
2023/08/16 10:08:00;;;;;;;;;2.00;1.67;;;;;-146.67;100.00;57155.34;5141651;27;8957;-94
2023/08/16 10:10:26;;;;;;;;;3.33;2.67;;;;;-146.67;100.00;57155.34;5123208;28;8814;-94
2023/08/16 10:12:52;;;;;;;;;4.00;3.00;;;;;-146.67;100.00;57155.34;5122537;28;9137;-94
2023/08/16 10:15:17;;;;;;;;;1.00;1.00;;;;;-146.67;100.00;57155.34;5125667;27;8723;-93
2023/08/16 10:17:43;;;;;;;;;2.67;1.33;;;;;-146.67;100.00;57155.34;5132671;27;8881;-94
2023/08/16 10:20:29;;;;;;;;;3.00;0.00;;;;;-146.67;100.00;57155.34;5122309;27;8795;-93
2023/08/16 10:23:00;;;;;;;;;3.25;2.00;;;;;-146.67;100.00;57155.34;5118937;27;8760;-94
2023/08/16 10:25:38;;;;;;;;;2.25;2.25;;;;;-146.67;100.00;57155.34;5141286;27;8813;-94
2023/08/16 10:28:07;;;;;;;;;1.75;1.75;;;;;-146.67;100.00;57155.34;5142252;27;8723;-94
2023/08/16 10:30:35;;;;;;;;;1.67;1.00;;;;;-146.67;100.00;57155.34;5145107;27;8753;-94
2023/08/16 10:33:14;;;;;;;;;2.00;2.00;;;;;-146.67;100.00;57155.34;5162375;27;10041;-81
2023/08/16 10:35:42;;;;;;;;;5.00;3.75;;;;;-146.67;100.00;57155.34;5128809;27;8814;-79
2023/08/16 10:38:07;;;;;;;;;2.25;0.75;;;;;-146.67;100.00;57155.34;5141469;27;8834;-79
2023/08/16 10:40:32;;;;;;;;;1.33;1.33;;;;;-146.67;100.00;57155.34;5125881;28;8795;-79
2023/08/16 10:42:59;;;;;;;;;1.00;1.00;;;;;-146.67;100.00;57155.34;5127007;27;9847;-79
2023/08/16 10:45:33;;;;;;;;;1.00;1.00;;;;;-146.67;100.00;57155.34;5104162;28;8857;-79
2023/08/16 10:48:09;;;;;;;;;1.50;1.50;;;;;-146.67;100.00;57155.34;5105318;28;8786;-79
2023/08/16 10:50:34;;;;;;;;;2.00;2.00;;;;;-146.67;100.00;57155.34;5104290;28;8710;-81
2023/08/16 10:53:00;;;;;;;;;1.33;1.33;;;;;-146.67;100.00;57155.34;5113000;27;11130;-79
2023/08/16 10:55:25;;;;;;;;;0.33;0.33;;;;;-146.67;100.00;57155.34;5138190;27;8879;-77
2023/08/16 10:57:54;;;;;;;;;0.67;0.67;;;;;-146.67;100.00;57155.34;5140769;27;8802;-79
2023/08/16 11:00:32;;;;;;;;;0.25;0.25;;;;;-146.67;100.00;57155.34;5125390;27;8727;-79
2023/08/16 11:02:58;;;;;;;;;1.00;0.00;;;;;-146.67;100.00;57155.34;5144388;27;10020;-79
2023/08/16 11:05:24;;;;;;;;;1.00;1.00;;;;;-146.67;100.00;57155.34;5138642;27;8783;-79
2023/08/16 11:07:50;;;;;;;;;1.33;1.00;;;;;-146.67;100.00;57155.34;5148072;27;8816;-78
2023/08/16 11:10:15;;;;;;;;;1.00;1.00;;;;;-146.67;100.00;57155.34;5145783;27;11434;-79
2023/08/16 11:12:41;;;;;;;;;0.67;0.67;;;;;-146.67;100.00;57155.34;5161912;27;10011;-76
2023/08/16 11:15:08;;;;;;;;;0.00;0.00;;;;;-146.67;100.00;57155.34;5146395;27;8786;-79